sensor_id;sensor_type;location;lat;lon;timestamp;temperature;humidity
2387;DHT22;49473;50.772;8.768;2024-03-07T00:00:01;6.80;99.90
2387;DHT22;49473;50.772;8.768;2024-03-07T00:02:29;6.80;99.90
2387;DHT22;49473;50.772;8.768;2024-03-07T00:04:57;6.80;99.90
2387;DHT22;49473;50.772;8.768;2024-03-07T00:07:24;6.80;99.90
2387;DHT22;49473;50.772;8.768;2024-03-07T00:09:50;6.70;99.90
2387;DHT22;49473;50.772;8.768;2024-03-07T00:12:19;6.60;99.90
2387;DHT22;49473;50.772;8.768;2024-03-07T00:14:46;6.60;99.90
2387;DHT22;49473;50.772;8.768;2024-03-07T00:17:12;6.60;99.90
2387;DHT22;49473;50.772;8.768;2024-03-07T00:19:39;6.50;99.90
2387;DHT22;49473;50.772;8.768;2024-03-07T00:22:07;6.50;99.90
2387;DHT22;49473;50.772;8.768;2024-03-07T00:24:34;6.40;99.90
2387;DHT22;49473;50.772;8.768;2024-03-07T00:27:01;6.40;99.90
2387;DHT22;49473;50.772;8.768;2024-03-07T00:29:27;6.30;99.90
2387;DHT22;49473;50.772;8.768;2024-03-07T00:31:54;6.30;99.90
2387;DHT22;49473;50.772;8.768;2024-03-07T00:34:21;6.30;99.90
2387;DHT22;49473;50.772;8.768;2024-03-07T00:36:48;6.10;99.90
2387;DHT22;49473;50.772;8.768;2024-03-07T00:39:18;6.10;99.90
2387;DHT22;49473;50.772;8.768;2024-03-07T00:41:45;6.00;99.90
2387;DHT22;49473;50.772;8.768;2024-03-07T00:44:12;5.90;99.90
2387;DHT22;49473;50.772;8.768;2024-03-07T00:46:39;5.90;99.90
2387;DHT22;49473;50.772;8.768;2024-03-07T00:49:06;5.90;99.90
2387;DHT22;49473;50.772;8.768;2024-03-07T00:51:33;5.80;99.90
2387;DHT22;49473;50.772;8.768;2024-03-07T00:53:59;5.70;99.90
2387;DHT22;49473;50.772;8.768;2024-03-07T00:56:28;5.50;99.90
2387;DHT22;49473;50.772;8.768;2024-03-07T00:58:55;5.50;99.90
2387;DHT22;49473;50.772;8.768;2024-03-07T01:01:22;5.40;99.90
2387;DHT22;49473;50.772;8.768;2024-03-07T01:03:48;5.30;99.90
2387;DHT22;49473;50.772;8.768;2024-03-07T01:06:14;5.20;99.90
2387;DHT22;49473;50.772;8.768;2024-03-07T01:08:41;5.20;99.90
2387;DHT22;49473;50.772;8.768;2024-03-07T01:11:08;5.20;99.90
2387;DHT22;49473;50.772;8.768;2024-03-07T01:13:39;5.10;99.90
2387;DHT22;49473;50.772;8.768;2024-03-07T01:16:06;5.00;99.90
2387;DHT22;49473;50.772;8.768;2024-03-07T01:18:33;5.00;99.90
2387;DHT22;49473;50.772;8.768;2024-03-07T01:21:00;4.90;99.90
2387;DHT22;49473;50.772;8.768;2024-03-07T01:23:26;4.90;99.90
2387;DHT22;49473;50.772;8.768;2024-03-07T01:25:55;4.90;99.90
2387;DHT22;49473;50.772;8.768;2024-03-07T01:28:22;4.80;99.90
2387;DHT22;49473;50.772;8.768;2024-03-07T01:30:50;4.70;99.90
2387;DHT22;49473;50.772;8.768;2024-03-07T01:33:18;4.70;99.90
2387;DHT22;49473;50.772;8.768;2024-03-07T01:35:45;4.60;99.90
2387;DHT22;49473;50.772;8.768;2024-03-07T01:38:12;4.60;99.90
2387;DHT22;49473;50.772;8.768;2024-03-07T01:40:39;4.50;99.90
2387;DHT22;49473;50.772;8.768;2024-03-07T01:43:06;4.60;99.90
2387;DHT22;49473;50.772;8.768;2024-03-07T01:45:33;4.50;99.90
2387;DHT22;49473;50.772;8.768;2024-03-07T01:48:04;4.60;99.90
2387;DHT22;49473;50.772;8.768;2024-03-07T01:50:31;4.60;99.90
2387;DHT22;49473;50.772;8.768;2024-03-07T01:52:59;4.60;99.90
2387;DHT22;49473;50.772;8.768;2024-03-07T01:55:27;4.60;99.90
2387;DHT22;49473;50.772;8.768;2024-03-07T01:57:55;4.60;99.90
2387;DHT22;49473;50.772;8.768;2024-03-07T02:00:23;4.70;99.90
2387;DHT22;49473;50.772;8.768;2024-03-07T02:02:49;4.70;99.90
2387;DHT22;49473;50.772;8.768;2024-03-07T02:05:18;4.80;99.90
2387;DHT22;49473;50.772;8.768;2024-03-07T02:07:45;4.80;99.90
2387;DHT22;49473;50.772;8.768;2024-03-07T02:10:12;4.90;99.90
2387;DHT22;49473;50.772;8.768;2024-03-07T02:12:38;5.00;99.90
2387;DHT22;49473;50.772;8.768;2024-03-07T02:15:06;5.00;99.90
2387;DHT22;49473;50.772;8.768;2024-03-07T02:17:34;5.10;99.90
2387;DHT22;49473;50.772;8.768;2024-03-07T02:20:01;5.10;99.90
2387;DHT22;49473;50.772;8.768;2024-03-07T02:22:31;5.00;99.90
2387;DHT22;49473;50.772;8.768;2024-03-07T02:24:57;5.00;99.90
2387;DHT22;49473;50.772;8.768;2024-03-07T02:27:24;4.90;99.90
2387;DHT22;49473;50.772;8.768;2024-03-07T02:29:51;4.90;99.90
2387;DHT22;49473;50.772;8.768;2024-03-07T02:32:17;4.90;99.90
2387;DHT22;49473;50.772;8.768;2024-03-07T02:34:44;4.90;99.90
2387;DHT22;49473;50.772;8.768;2024-03-07T02:37:12;4.90;99.90
2387;DHT22;49473;50.772;8.768;2024-03-07T02:39:40;4.90;99.90
2387;DHT22;49473;50.772;8.768;2024-03-07T02:42:07;4.80;99.90
2387;DHT22;49473;50.772;8.768;2024-03-07T02:44:34;4.80;99.90
2387;DHT22;49473;50.772;8.768;2024-03-07T02:47:00;4.70;99.90
2387;DHT22;49473;50.772;8.768;2024-03-07T02:49:29;4.60;99.90
2387;DHT22;49473;50.772;8.768;2024-03-07T02:51:56;4.60;99.90
2387;DHT22;49473;50.772;8.768;2024-03-07T02:54:22;4.60;99.90
2387;DHT22;49473;50.772;8.768;2024-03-07T02:56:50;4.50;99.90
2387;DHT22;49473;50.772;8.768;2024-03-07T02:59:17;4.40;99.90
2387;DHT22;49473;50.772;8.768;2024-03-07T03:01:44;4.30;99.90
2387;DHT22;49473;50.772;8.768;2024-03-07T03:04:11;4.30;99.90
2387;DHT22;49473;50.772;8.768;2024-03-07T03:06:38;4.20;99.90
2387;DHT22;49473;50.772;8.768;2024-03-07T03:09:04;4.10;99.90
2387;DHT22;49473;50.772;8.768;2024-03-07T03:11:31;4.00;99.90
2387;DHT22;49473;50.772;8.768;2024-03-07T03:13:59;3.90;99.90
2387;DHT22;49473;50.772;8.768;2024-03-07T03:16:26;3.90;99.90
2387;DHT22;49473;50.772;8.768;2024-03-07T03:18:52;3.90;99.90
2387;DHT22;49473;50.772;8.768;2024-03-07T03:21:19;3.80;99.90
2387;DHT22;49473;50.772;8.768;2024-03-07T03:23:46;3.80;99.90
2387;DHT22;49473;50.772;8.768;2024-03-07T03:26:14;3.70;99.90
2387;DHT22;49473;50.772;8.768;2024-03-07T03:28:41;3.70;99.90
2387;DHT22;49473;50.772;8.768;2024-03-07T03:31:09;3.70;99.90
2387;DHT22;49473;50.772;8.768;2024-03-07T03:33:39;3.60;99.90
2387;DHT22;49473;50.772;8.768;2024-03-07T03:36:06;3.50;99.90
2387;DHT22;49473;50.772;8.768;2024-03-07T03:38:33;3.50;99.90
2387;DHT22;49473;50.772;8.768;2024-03-07T03:41:00;3.40;99.90
2387;DHT22;49473;50.772;8.768;2024-03-07T03:43:27;3.40;99.90
2387;DHT22;49473;50.772;8.768;2024-03-07T03:45:53;3.30;99.90
2387;DHT22;49473;50.772;8.768;2024-03-07T03:48:21;3.30;99.90
2387;DHT22;49473;50.772;8.768;2024-03-07T03:50:48;3.20;99.90
2387;DHT22;49473;50.772;8.768;2024-03-07T03:53:15;3.10;99.90
2387;DHT22;49473;50.772;8.768;2024-03-07T03:55:43;3.00;99.90
2387;DHT22;49473;50.772;8.768;2024-03-07T03:58:09;2.90;99.90
2387;DHT22;49473;50.772;8.768;2024-03-07T04:00:36;2.80;99.90
2387;DHT22;49473;50.772;8.768;2024-03-07T04:03:04;2.70;99.90
2387;DHT22;49473;50.772;8.768;2024-03-07T04:05:34;2.60;99.90
2387;DHT22;49473;50.772;8.768;2024-03-07T04:08:00;2.50;99.90
2387;DHT22;49473;50.772;8.768;2024-03-07T04:10:27;2.40;99.90
2387;DHT22;49473;50.772;8.768;2024-03-07T04:12:54;2.20;99.90
2387;DHT22;49473;50.772;8.768;2024-03-07T04:15:20;2.10;99.90
2387;DHT22;49473;50.772;8.768;2024-03-07T04:17:49;1.90;99.90
2387;DHT22;49473;50.772;8.768;2024-03-07T04:20:15;1.80;99.90
2387;DHT22;49473;50.772;8.768;2024-03-07T04:22:44;1.70;99.90
2387;DHT22;49473;50.772;8.768;2024-03-07T04:25:11;1.60;99.90
2387;DHT22;49473;50.772;8.768;2024-03-07T04:27:38;1.60;99.90
2387;DHT22;49473;50.772;8.768;2024-03-07T04:30:06;1.50;99.90
2387;DHT22;49473;50.772;8.768;2024-03-07T04:32:35;1.50;99.90
2387;DHT22;49473;50.772;8.768;2024-03-07T04:35:02;1.50;99.90
2387;DHT22;49473;50.772;8.768;2024-03-07T04:37:33;1.50;99.90
2387;DHT22;49473;50.772;8.768;2024-03-07T04:40:03;1.50;99.90
2387;DHT22;49473;50.772;8.768;2024-03-07T04:42:36;1.50;99.90
2387;DHT22;49473;50.772;8.768;2024-03-07T04:45:03;1.60;99.90
2387;DHT22;49473;50.772;8.768;2024-03-07T04:47:30;1.60;99.90
2387;DHT22;49473;50.772;8.768;2024-03-07T04:49:57;1.50;99.90
2387;DHT22;49473;50.772;8.768;2024-03-07T04:52:24;1.40;99.90
2387;DHT22;49473;50.772;8.768;2024-03-07T04:54:50;1.40;99.90
2387;DHT22;49473;50.772;8.768;2024-03-07T04:57:18;1.30;99.90
2387;DHT22;49473;50.772;8.768;2024-03-07T04:59:45;1.20;99.90
2387;DHT22;49473;50.772;8.768;2024-03-07T05:02:12;1.10;99.90
2387;DHT22;49473;50.772;8.768;2024-03-07T05:04:39;1.00;99.90
2387;DHT22;49473;50.772;8.768;2024-03-07T05:07:05;1.00;99.90
2387;DHT22;49473;50.772;8.768;2024-03-07T05:09:32;0.90;99.90
2387;DHT22;49473;50.772;8.768;2024-03-07T05:11:59;0.90;99.90
2387;DHT22;49473;50.772;8.768;2024-03-07T05:14:27;0.90;99.90
2387;DHT22;49473;50.772;8.768;2024-03-07T05:16:54;0.90;99.90
2387;DHT22;49473;50.772;8.768;2024-03-07T05:19:34;1.00;99.90
2387;DHT22;49473;50.772;8.768;2024-03-07T05:22:01;1.00;99.90
2387;DHT22;49473;50.772;8.768;2024-03-07T05:24:28;1.10;99.90
2387;DHT22;49473;50.772;8.768;2024-03-07T05:26:54;1.20;99.90
2387;DHT22;49473;50.772;8.768;2024-03-07T05:29:22;1.30;99.90
2387;DHT22;49473;50.772;8.768;2024-03-07T05:31:50;1.40;99.90
2387;DHT22;49473;50.772;8.768;2024-03-07T05:34:17;1.40;99.90
2387;DHT22;49473;50.772;8.768;2024-03-07T05:36:45;1.50;99.90
2387;DHT22;49473;50.772;8.768;2024-03-07T05:39:13;1.60;99.90
2387;DHT22;49473;50.772;8.768;2024-03-07T05:41:40;1.70;99.90
2387;DHT22;49473;50.772;8.768;2024-03-07T05:44:07;1.80;99.90
2387;DHT22;49473;50.772;8.768;2024-03-07T05:46:36;1.90;99.90
2387;DHT22;49473;50.772;8.768;2024-03-07T05:49:08;2.10;99.90
2387;DHT22;49473;50.772;8.768;2024-03-07T05:51:34;2.20;99.90
2387;DHT22;49473;50.772;8.768;2024-03-07T05:54:01;2.40;99.90
2387;DHT22;49473;50.772;8.768;2024-03-07T05:56:32;2.50;99.90
2387;DHT22;49473;50.772;8.768;2024-03-07T05:59:01;2.60;99.90
2387;DHT22;49473;50.772;8.768;2024-03-07T06:01:29;2.70;99.90
2387;DHT22;49473;50.772;8.768;2024-03-07T06:03:58;2.70;99.90
2387;DHT22;49473;50.772;8.768;2024-03-07T06:06:26;2.70;99.90
2387;DHT22;49473;50.772;8.768;2024-03-07T06:08:53;2.70;99.90
2387;DHT22;49473;50.772;8.768;2024-03-07T06:11:19;2.80;99.90
2387;DHT22;49473;50.772;8.768;2024-03-07T06:13:47;2.80;99.90
2387;DHT22;49473;50.772;8.768;2024-03-07T06:16:14;2.80;99.90
2387;DHT22;49473;50.772;8.768;2024-03-07T06:18:41;2.80;99.90
2387;DHT22;49473;50.772;8.768;2024-03-07T06:21:08;3.00;99.90
2387;DHT22;49473;50.772;8.768;2024-03-07T06:23:36;3.00;99.90
2387;DHT22;49473;50.772;8.768;2024-03-07T06:26:03;3.00;99.90
2387;DHT22;49473;50.772;8.768;2024-03-07T06:28:38;3.00;99.90
2387;DHT22;49473;50.772;8.768;2024-03-07T06:31:05;3.10;99.90
2387;DHT22;49473;50.772;8.768;2024-03-07T06:33:33;3.20;99.90
2387;DHT22;49473;50.772;8.768;2024-03-07T06:36:00;3.30;99.90
2387;DHT22;49473;50.772;8.768;2024-03-07T06:38:27;3.40;99.90
2387;DHT22;49473;50.772;8.768;2024-03-07T06:40:55;3.60;99.90
2387;DHT22;49473;50.772;8.768;2024-03-07T06:43:22;3.70;99.90
2387;DHT22;49473;50.772;8.768;2024-03-07T06:45:49;3.70;99.90
2387;DHT22;49473;50.772;8.768;2024-03-07T06:48:16;3.80;99.90
2387;DHT22;49473;50.772;8.768;2024-03-07T06:50:43;3.90;99.90
2387;DHT22;49473;50.772;8.768;2024-03-07T06:53:10;3.90;99.90
2387;DHT22;49473;50.772;8.768;2024-03-07T06:55:36;4.00;99.90
2387;DHT22;49473;50.772;8.768;2024-03-07T06:58:05;4.10;99.90
2387;DHT22;49473;50.772;8.768;2024-03-07T07:00:32;4.20;99.90
2387;DHT22;49473;50.772;8.768;2024-03-07T07:03:01;4.40;99.90
2387;DHT22;49473;50.772;8.768;2024-03-07T07:05:30;4.50;99.90
2387;DHT22;49473;50.772;8.768;2024-03-07T07:07:57;4.60;99.90
2387;DHT22;49473;50.772;8.768;2024-03-07T07:10:24;4.70;99.90
2387;DHT22;49473;50.772;8.768;2024-03-07T07:12:50;4.70;99.90
2387;DHT22;49473;50.772;8.768;2024-03-07T07:15:21;4.80;99.90
2387;DHT22;49473;50.772;8.768;2024-03-07T07:17:49;4.90;99.90
2387;DHT22;49473;50.772;8.768;2024-03-07T07:20:16;5.00;99.90
2387;DHT22;49473;50.772;8.768;2024-03-07T07:22:45;5.00;99.90
2387;DHT22;49473;50.772;8.768;2024-03-07T07:25:12;5.10;99.90
2387;DHT22;49473;50.772;8.768;2024-03-07T07:27:40;5.20;99.90
2387;DHT22;49473;50.772;8.768;2024-03-07T07:30:10;5.30;99.90
2387;DHT22;49473;50.772;8.768;2024-03-07T07:32:38;5.30;99.90
2387;DHT22;49473;50.772;8.768;2024-03-07T07:35:06;5.40;99.90
2387;DHT22;49473;50.772;8.768;2024-03-07T07:37:37;5.50;99.90
2387;DHT22;49473;50.772;8.768;2024-03-07T07:40:04;5.50;99.90
2387;DHT22;49473;50.772;8.768;2024-03-07T07:42:33;5.50;99.90
2387;DHT22;49473;50.772;8.768;2024-03-07T07:45:01;5.60;99.90
2387;DHT22;49473;50.772;8.768;2024-03-07T07:47:28;5.60;99.90
2387;DHT22;49473;50.772;8.768;2024-03-07T07:49:56;5.70;99.90
2387;DHT22;49473;50.772;8.768;2024-03-07T07:52:23;5.80;99.90
2387;DHT22;49473;50.772;8.768;2024-03-07T07:54:49;5.80;99.90
2387;DHT22;49473;50.772;8.768;2024-03-07T07:57:16;5.70;99.90
2387;DHT22;49473;50.772;8.768;2024-03-07T07:59:43;5.80;99.90
2387;DHT22;49473;50.772;8.768;2024-03-07T08:02:10;5.90;99.90
2387;DHT22;49473;50.772;8.768;2024-03-07T08:04:36;5.90;99.90
2387;DHT22;49473;50.772;8.768;2024-03-07T08:07:05;6.00;99.90
2387;DHT22;49473;50.772;8.768;2024-03-07T08:09:33;5.90;99.90
2387;DHT22;49473;50.772;8.768;2024-03-07T08:11:59;6.00;99.90
2387;DHT22;49473;50.772;8.768;2024-03-07T08:14:28;6.00;99.90
2387;DHT22;49473;50.772;8.768;2024-03-07T08:16:55;6.00;99.90
2387;DHT22;49473;50.772;8.768;2024-03-07T08:19:22;5.80;99.90
2387;DHT22;49473;50.772;8.768;2024-03-07T08:21:48;5.80;99.90
2387;DHT22;49473;50.772;8.768;2024-03-07T08:24:16;5.60;99.90
2387;DHT22;49473;50.772;8.768;2024-03-07T08:26:43;5.70;99.90
2387;DHT22;49473;50.772;8.768;2024-03-07T08:29:12;5.80;99.90
2387;DHT22;49473;50.772;8.768;2024-03-07T08:31:39;5.90;99.90
2387;DHT22;49473;50.772;8.768;2024-03-07T08:34:05;6.00;99.90
2387;DHT22;49473;50.772;8.768;2024-03-07T08:36:32;6.10;99.90
2387;DHT22;49473;50.772;8.768;2024-03-07T08:38:59;6.10;99.90
2387;DHT22;49473;50.772;8.768;2024-03-07T08:41:27;6.20;99.90
2387;DHT22;49473;50.772;8.768;2024-03-07T08:43:53;6.20;99.90
2387;DHT22;49473;50.772;8.768;2024-03-07T08:46:20;6.40;99.90
2387;DHT22;49473;50.772;8.768;2024-03-07T08:48:47;6.50;99.90
2387;DHT22;49473;50.772;8.768;2024-03-07T08:51:15;6.30;99.90
2387;DHT22;49473;50.772;8.768;2024-03-07T08:53:43;6.40;99.90
2387;DHT22;49473;50.772;8.768;2024-03-07T08:56:09;6.40;99.90
2387;DHT22;49473;50.772;8.768;2024-03-07T08:58:38;6.20;99.90
2387;DHT22;49473;50.772;8.768;2024-03-07T09:01:04;6.10;99.90
2387;DHT22;49473;50.772;8.768;2024-03-07T09:03:31;6.20;99.90
2387;DHT22;49473;50.772;8.768;2024-03-07T09:05:58;6.20;99.90
2387;DHT22;49473;50.772;8.768;2024-03-07T09:08:25;6.30;99.90
2387;DHT22;49473;50.772;8.768;2024-03-07T09:10:52;6.40;99.90
2387;DHT22;49473;50.772;8.768;2024-03-07T09:13:20;6.60;99.90
2387;DHT22;49473;50.772;8.768;2024-03-07T09:15:48;6.80;99.90
2387;DHT22;49473;50.772;8.768;2024-03-07T09:18:15;7.00;99.90
2387;DHT22;49473;50.772;8.768;2024-03-07T09:20:42;7.20;99.90
2387;DHT22;49473;50.772;8.768;2024-03-07T09:23:09;7.00;99.90
2387;DHT22;49473;50.772;8.768;2024-03-07T09:25:36;7.00;99.90
2387;DHT22;49473;50.772;8.768;2024-03-07T09:28:03;6.70;99.90
2387;DHT22;49473;50.772;8.768;2024-03-07T09:30:31;6.80;99.90
2387;DHT22;49473;50.772;8.768;2024-03-07T09:32:59;6.70;99.90
2387;DHT22;49473;50.772;8.768;2024-03-07T09:35:27;6.60;99.90
2387;DHT22;49473;50.772;8.768;2024-03-07T09:37:53;6.70;99.90
2387;DHT22;49473;50.772;8.768;2024-03-07T09:40:20;6.60;99.90
2387;DHT22;49473;50.772;8.768;2024-03-07T09:42:50;6.70;99.90
2387;DHT22;49473;50.772;8.768;2024-03-07T09:45:20;6.70;99.90
2387;DHT22;49473;50.772;8.768;2024-03-07T09:47:48;6.80;99.90
2387;DHT22;49473;50.772;8.768;2024-03-07T09:50:19;6.70;99.90
2387;DHT22;49473;50.772;8.768;2024-03-07T09:52:48;6.70;99.90
2387;DHT22;49473;50.772;8.768;2024-03-07T09:55:16;6.90;99.90
2387;DHT22;49473;50.772;8.768;2024-03-07T09:57:43;7.10;99.90
2387;DHT22;49473;50.772;8.768;2024-03-07T10:00:12;7.20;99.90
2387;DHT22;49473;50.772;8.768;2024-03-07T10:02:50;7.40;99.90
2387;DHT22;49473;50.772;8.768;2024-03-07T10:05:22;7.40;99.90
2387;DHT22;49473;50.772;8.768;2024-03-07T10:07:51;7.30;99.90
2387;DHT22;49473;50.772;8.768;2024-03-07T10:10:18;7.30;99.90
2387;DHT22;49473;50.772;8.768;2024-03-07T10:12:44;7.50;99.90
2387;DHT22;49473;50.772;8.768;2024-03-07T10:15:11;7.40;99.90
2387;DHT22;49473;50.772;8.768;2024-03-07T10:17:39;7.60;99.90
2387;DHT22;49473;50.772;8.768;2024-03-07T10:20:07;7.80;99.90
2387;DHT22;49473;50.772;8.768;2024-03-07T10:22:39;7.90;99.90
2387;DHT22;49473;50.772;8.768;2024-03-07T10:25:06;7.80;99.90
2387;DHT22;49473;50.772;8.768;2024-03-07T10:27:36;7.70;99.90
2387;DHT22;49473;50.772;8.768;2024-03-07T10:30:03;7.70;99.90
2387;DHT22;49473;50.772;8.768;2024-03-07T10:32:33;7.60;99.90
2387;DHT22;49473;50.772;8.768;2024-03-07T10:35:02;7.70;99.90
2387;DHT22;49473;50.772;8.768;2024-03-07T10:37:34;7.80;99.90
2387;DHT22;49473;50.772;8.768;2024-03-07T10:40:03;8.20;99.90
2387;DHT22;49473;50.772;8.768;2024-03-07T10:42:44;8.50;99.90
2387;DHT22;49473;50.772;8.768;2024-03-07T10:45:12;10.10;99.90
2387;DHT22;49473;50.772;8.768;2024-03-07T10:47:43;12.70;99.90
2387;DHT22;49473;50.772;8.768;2024-03-07T10:50:19;15.30;99.90
2387;DHT22;49473;50.772;8.768;2024-03-07T10:52:54;14.30;99.90
2387;DHT22;49473;50.772;8.768;2024-03-07T10:55:29;13.80;99.90
2387;DHT22;49473;50.772;8.768;2024-03-07T10:58:02;14.90;99.90
2387;DHT22;49473;50.772;8.768;2024-03-07T11:00:33;16.30;99.90
2387;DHT22;49473;50.772;8.768;2024-03-07T11:03:02;17.50;99.90
2387;DHT22;49473;50.772;8.768;2024-03-07T11:05:33;18.50;99.90
2387;DHT22;49473;50.772;8.768;2024-03-07T11:08:00;17.30;99.80
2387;DHT22;49473;50.772;8.768;2024-03-07T11:10:35;15.70;99.90
2387;DHT22;49473;50.772;8.768;2024-03-07T11:13:03;15.30;99.90
2387;DHT22;49473;50.772;8.768;2024-03-07T11:15:30;15.60;99.90
2387;DHT22;49473;50.772;8.768;2024-03-07T11:17:58;16.00;99.90
2387;DHT22;49473;50.772;8.768;2024-03-07T11:20:26;16.30;99.90
2387;DHT22;49473;50.772;8.768;2024-03-07T11:22:53;15.10;99.90
2387;DHT22;49473;50.772;8.768;2024-03-07T11:25:21;16.10;99.90
2387;DHT22;49473;50.772;8.768;2024-03-07T11:27:55;16.40;99.10
2387;DHT22;49473;50.772;8.768;2024-03-07T11:30:22;15.80;99.30
2387;DHT22;49473;50.772;8.768;2024-03-07T11:32:49;16.00;97.90
2387;DHT22;49473;50.772;8.768;2024-03-07T11:35:18;15.20;98.40
2387;DHT22;49473;50.772;8.768;2024-03-07T11:37:56;14.90;99.30
2387;DHT22;49473;50.772;8.768;2024-03-07T11:40:44;14.20;98.90
2387;DHT22;49473;50.772;8.768;2024-03-07T11:43:15;15.30;99.90
2387;DHT22;49473;50.772;8.768;2024-03-07T11:45:42;16.10;99.60
2387;DHT22;49473;50.772;8.768;2024-03-07T11:48:17;17.10;95.30
2387;DHT22;49473;50.772;8.768;2024-03-07T11:50:46;16.00;94.70
2387;DHT22;49473;50.772;8.768;2024-03-07T11:53:14;14.50;95.90
2387;DHT22;49473;50.772;8.768;2024-03-07T11:55:41;14.60;97.00
2387;DHT22;49473;50.772;8.768;2024-03-07T11:58:13;15.30;96.30
2387;DHT22;49473;50.772;8.768;2024-03-07T12:00:44;15.00;96.50
2387;DHT22;49473;50.772;8.768;2024-03-07T12:03:12;15.60;95.60
2387;DHT22;49473;50.772;8.768;2024-03-07T12:05:40;15.20;94.70
2387;DHT22;49473;50.772;8.768;2024-03-07T12:08:09;14.00;95.90
2387;DHT22;49473;50.772;8.768;2024-03-07T12:10:36;13.10;97.80
2387;DHT22;49473;50.772;8.768;2024-03-07T12:13:05;12.30;98.70
2387;DHT22;49473;50.772;8.768;2024-03-07T12:15:32;12.00;99.90
2387;DHT22;49473;50.772;8.768;2024-03-07T12:18:02;12.10;99.90
2387;DHT22;49473;50.772;8.768;2024-03-07T12:20:35;12.50;99.90
2387;DHT22;49473;50.772;8.768;2024-03-07T12:23:02;12.90;99.90
2387;DHT22;49473;50.772;8.768;2024-03-07T12:25:31;14.70;99.90
2387;DHT22;49473;50.772;8.768;2024-03-07T12:28:05;15.40;98.00
2387;DHT22;49473;50.772;8.768;2024-03-07T12:30:47;15.20;98.90
2387;DHT22;49473;50.772;8.768;2024-03-07T12:33:17;14.10;99.60
2387;DHT22;49473;50.772;8.768;2024-03-07T12:35:45;13.50;99.90
2387;DHT22;49473;50.772;8.768;2024-03-07T12:38:13;12.60;99.90
2387;DHT22;49473;50.772;8.768;2024-03-07T12:40:41;12.20;99.90
2387;DHT22;49473;50.772;8.768;2024-03-07T12:43:18;11.80;99.90
2387;DHT22;49473;50.772;8.768;2024-03-07T12:45:49;11.30;99.90
2387;DHT22;49473;50.772;8.768;2024-03-07T12:48:18;11.00;99.90
2387;DHT22;49473;50.772;8.768;2024-03-07T12:50:47;10.80;99.90
2387;DHT22;49473;50.772;8.768;2024-03-07T12:53:18;9.80;99.90
2387;DHT22;49473;50.772;8.768;2024-03-07T12:55:45;9.70;99.90
2387;DHT22;49473;50.772;8.768;2024-03-07T12:58:12;9.30;99.90
2387;DHT22;49473;50.772;8.768;2024-03-07T13:00:39;9.30;99.90
2387;DHT22;49473;50.772;8.768;2024-03-07T13:03:07;9.40;99.90
2387;DHT22;49473;50.772;8.768;2024-03-07T13:05:35;9.50;99.90
2387;DHT22;49473;50.772;8.768;2024-03-07T13:08:06;9.50;99.90
2387;DHT22;49473;50.772;8.768;2024-03-07T13:10:37;9.30;99.90
2387;DHT22;49473;50.772;8.768;2024-03-07T13:13:03;9.20;99.90
2387;DHT22;49473;50.772;8.768;2024-03-07T13:15:31;9.20;99.90
2387;DHT22;49473;50.772;8.768;2024-03-07T13:17:57;9.20;99.90
2387;DHT22;49473;50.772;8.768;2024-03-07T13:20:25;9.00;99.90
2387;DHT22;49473;50.772;8.768;2024-03-07T13:22:54;8.90;99.90
2387;DHT22;49473;50.772;8.768;2024-03-07T13:25:23;8.90;99.90
2387;DHT22;49473;50.772;8.768;2024-03-07T13:27:55;9.10;99.90
2387;DHT22;49473;50.772;8.768;2024-03-07T13:30:23;9.50;99.90
2387;DHT22;49473;50.772;8.768;2024-03-07T13:32:53;9.80;99.90
2387;DHT22;49473;50.772;8.768;2024-03-07T13:35:21;10.00;99.90
2387;DHT22;49473;50.772;8.768;2024-03-07T13:37:48;10.20;99.90
2387;DHT22;49473;50.772;8.768;2024-03-07T13:40:17;10.40;99.90
2387;DHT22;49473;50.772;8.768;2024-03-07T13:42:54;10.40;99.90
2387;DHT22;49473;50.772;8.768;2024-03-07T13:45:22;10.30;99.90
2387;DHT22;49473;50.772;8.768;2024-03-07T13:47:49;10.10;99.90
2387;DHT22;49473;50.772;8.768;2024-03-07T13:50:18;9.70;99.90
2387;DHT22;49473;50.772;8.768;2024-03-07T13:52:48;9.40;99.90
2387;DHT22;49473;50.772;8.768;2024-03-07T13:55:47;9.10;99.90
2387;DHT22;49473;50.772;8.768;2024-03-07T13:58:25;9.10;99.90
2387;DHT22;49473;50.772;8.768;2024-03-07T14:01:08;9.30;99.90
2387;DHT22;49473;50.772;8.768;2024-03-07T14:04:13;9.50;99.90
2387;DHT22;49473;50.772;8.768;2024-03-07T14:07:03;9.50;99.90
2387;DHT22;49473;50.772;8.768;2024-03-07T14:10:00;9.00;99.90
2387;DHT22;49473;50.772;8.768;2024-03-07T14:12:58;8.80;99.90
2387;DHT22;49473;50.772;8.768;2024-03-07T14:16:12;8.90;99.90
2387;DHT22;49473;50.772;8.768;2024-03-07T14:22:21;9.50;99.90
2387;DHT22;49473;50.772;8.768;2024-03-07T14:25:26;9.70;99.90
2387;DHT22;49473;50.772;8.768;2024-03-07T14:28:11;9.70;99.90
2387;DHT22;49473;50.772;8.768;2024-03-07T14:30:43;9.50;99.90
2387;DHT22;49473;50.772;8.768;2024-03-07T14:33:12;9.50;99.90
2387;DHT22;49473;50.772;8.768;2024-03-07T14:36:05;9.30;99.90
2387;DHT22;49473;50.772;8.768;2024-03-07T14:38:54;9.30;99.90
2387;DHT22;49473;50.772;8.768;2024-03-07T14:41:37;9.10;99.90
2387;DHT22;49473;50.772;8.768;2024-03-07T14:44:08;9.00;99.90
2387;DHT22;49473;50.772;8.768;2024-03-07T14:46:36;8.80;99.90
2387;DHT22;49473;50.772;8.768;2024-03-07T14:49:03;8.70;99.90
2387;DHT22;49473;50.772;8.768;2024-03-07T14:51:30;8.70;99.90
2387;DHT22;49473;50.772;8.768;2024-03-07T14:53:57;8.60;99.90
2387;DHT22;49473;50.772;8.768;2024-03-07T14:56:25;8.60;99.90
2387;DHT22;49473;50.772;8.768;2024-03-07T14:58:52;8.50;99.90
2387;DHT22;49473;50.772;8.768;2024-03-07T15:01:21;8.50;99.90
2387;DHT22;49473;50.772;8.768;2024-03-07T15:03:49;8.50;99.90
2387;DHT22;49473;50.772;8.768;2024-03-07T15:06:15;8.50;99.90
2387;DHT22;49473;50.772;8.768;2024-03-07T15:08:42;8.30;99.90
2387;DHT22;49473;50.772;8.768;2024-03-07T15:11:13;8.20;99.90
2387;DHT22;49473;50.772;8.768;2024-03-07T15:13:45;8.00;99.90
2387;DHT22;49473;50.772;8.768;2024-03-07T15:16:13;8.10;99.90
2387;DHT22;49473;50.772;8.768;2024-03-07T15:18:41;8.10;99.90
2387;DHT22;49473;50.772;8.768;2024-03-07T15:21:08;8.10;99.90
2387;DHT22;49473;50.772;8.768;2024-03-07T15:23:40;8.00;99.90
2387;DHT22;49473;50.772;8.768;2024-03-07T15:26:07;7.90;99.90
2387;DHT22;49473;50.772;8.768;2024-03-07T15:28:34;7.80;99.90
2387;DHT22;49473;50.772;8.768;2024-03-07T15:31:02;7.80;99.90
2387;DHT22;49473;50.772;8.768;2024-03-07T15:33:31;7.90;99.90
2387;DHT22;49473;50.772;8.768;2024-03-07T15:35:59;8.00;99.90
2387;DHT22;49473;50.772;8.768;2024-03-07T15:38:28;8.10;99.90
2387;DHT22;49473;50.772;8.768;2024-03-07T15:40:59;8.40;99.90
2387;DHT22;49473;50.772;8.768;2024-03-07T15:43:27;8.80;99.90
2387;DHT22;49473;50.772;8.768;2024-03-07T15:45:54;9.30;99.90
2387;DHT22;49473;50.772;8.768;2024-03-07T15:48:22;9.80;99.90
2387;DHT22;49473;50.772;8.768;2024-03-07T15:50:50;9.60;99.90
2387;DHT22;49473;50.772;8.768;2024-03-07T15:53:19;9.40;99.90
2387;DHT22;49473;50.772;8.768;2024-03-07T15:55:46;9.10;99.90
2387;DHT22;49473;50.772;8.768;2024-03-07T15:58:13;8.80;99.90
2387;DHT22;49473;50.772;8.768;2024-03-07T16:00:43;8.70;99.90
2387;DHT22;49473;50.772;8.768;2024-03-07T16:03:13;8.40;99.90
2387;DHT22;49473;50.772;8.768;2024-03-07T16:05:42;8.00;99.90
2387;DHT22;49473;50.772;8.768;2024-03-07T16:08:15;8.00;99.90
2387;DHT22;49473;50.772;8.768;2024-03-07T16:10:44;7.90;99.90
2387;DHT22;49473;50.772;8.768;2024-03-07T16:13:13;7.90;99.90